createdAt,value
2022-09-11T00:01:35.108Z,3.05
2022-09-11T00:04:04.194Z,2.83
2022-09-11T00:06:32.905Z,3.28
2022-09-11T00:09:05.414Z,3.13
2022-09-11T00:11:35.100Z,2.95
2022-09-11T00:14:03.767Z,2.90
2022-09-11T00:16:35.413Z,2.88
2022-09-11T00:19:06.584Z,2.80
2022-09-11T00:21:35.311Z,3.20
2022-09-11T00:24:04.457Z,2.83
2022-09-11T00:26:32.867Z,2.88
2022-09-11T00:29:01.913Z,4.10
2022-09-11T00:31:30.872Z,2.88
2022-09-11T00:34:00.870Z,3.40
2022-09-11T00:36:31.692Z,3.00
2022-09-11T00:39:00.831Z,2.70
2022-09-11T00:41:31.934Z,2.70
2022-09-11T00:44:02.692Z,3.75
2022-09-11T00:46:36.293Z,3.42
2022-09-11T00:49:16.897Z,4.82
2022-09-11T00:51:45.745Z,2.33
2022-09-11T00:54:14.434Z,2.80
2022-09-11T00:56:43.298Z,2.67
2022-09-11T00:59:12.402Z,3.03
2022-09-11T01:01:40.875Z,2.55
2022-09-11T01:04:10.723Z,2.75
2022-09-11T01:06:39.187Z,3.45
2022-09-11T01:09:07.619Z,3.10
2022-09-11T01:11:47.031Z,2.70
2022-09-11T01:14:30.272Z,2.70
2022-09-11T01:17:12.795Z,2.75
2022-09-11T01:20:04.614Z,2.60
2022-09-11T01:23:05.271Z,2.60
2022-09-11T01:25:47.972Z,2.80
2022-09-11T01:28:19.536Z,2.80
2022-09-11T01:30:52.027Z,3.10
2022-09-11T01:33:23.755Z,2.60
2022-09-11T01:35:57.207Z,2.70
2022-09-11T01:38:31.727Z,2.40
2022-09-11T01:41:05.754Z,2.45
2022-09-11T01:43:41.334Z,2.22
2022-09-11T01:46:10.392Z,2.63
2022-09-11T01:48:41.588Z,3.33
2022-09-11T01:51:11.188Z,2.40
2022-09-11T01:53:40.556Z,2.97
2022-09-11T01:56:13.366Z,2.45
2022-09-11T01:58:43.713Z,2.45
2022-09-11T02:01:13.937Z,2.55
2022-09-11T02:03:45.205Z,2.40
2022-09-11T02:06:16.173Z,2.83
2022-09-11T02:08:49.276Z,2.35
2022-09-11T02:11:18.162Z,2.40
2022-09-11T02:13:54.487Z,2.55
2022-09-11T02:16:29.919Z,2.40
2022-09-11T02:19:01.054Z,2.70
2022-09-11T02:21:29.682Z,2.88
2022-09-11T02:23:58.139Z,2.72
2022-09-11T02:26:28.098Z,2.20
2022-09-11T02:28:57.924Z,2.40
2022-09-11T02:31:26.486Z,3.15
2022-09-11T02:33:54.986Z,2.40
2022-09-11T02:37:06.573Z,2.08
2022-09-11T02:39:52.206Z,2.13
2022-09-11T02:42:39.056Z,2.55
2022-09-11T02:45:18.002Z,2.25
2022-09-11T02:47:54.062Z,2.55
2022-09-11T02:50:27.913Z,2.47
2022-09-11T02:53:00.142Z,2.13
2022-09-11T02:55:35.962Z,2.13
2022-09-11T02:58:07.354Z,2.10
2022-09-11T03:00:37.676Z,2.20
2022-09-11T03:03:06.762Z,2.10
2022-09-11T03:05:37.285Z,2.45
2022-09-11T03:08:05.812Z,2.10
2022-09-11T03:10:34.437Z,2.35
2022-09-11T03:13:03.090Z,2.30
2022-09-11T03:15:32.102Z,2.15
2022-09-11T03:18:02.136Z,3.63
2022-09-11T03:20:30.537Z,2.35
2022-09-11T03:22:59.099Z,1.90
2022-09-11T03:25:28.356Z,2.35
2022-09-11T03:27:57.072Z,2.50
2022-09-11T03:30:25.582Z,2.38
2022-09-11T03:32:54.462Z,2.10
2022-09-11T03:35:24.771Z,2.60
2022-09-11T03:37:53.330Z,2.10
2022-09-11T03:40:22.499Z,2.40
2022-09-11T03:42:50.963Z,2.40
2022-09-11T03:45:19.676Z,2.17
2022-09-11T03:47:48.428Z,4.18
2022-09-11T03:50:17.155Z,2.33
2022-09-11T03:52:47.136Z,2.25
2022-09-11T03:55:16.640Z,2.45
2022-09-11T03:57:45.190Z,2.10
2022-09-11T04:00:14.199Z,2.20
2022-09-11T04:02:42.898Z,2.10
2022-09-11T04:05:11.788Z,2.17
2022-09-11T04:07:40.264Z,2.10
2022-09-11T04:10:11.008Z,2.35
2022-09-11T04:12:39.484Z,2.30
2022-09-11T04:15:09.514Z,2.40
2022-09-11T04:17:38.152Z,2.65
2022-09-11T04:20:08.408Z,2.15
2022-09-11T04:22:37.006Z,2.58
2022-09-11T04:25:07.035Z,2.22
2022-09-11T04:27:36.817Z,1.83
2022-09-11T04:30:06.337Z,2.53
2022-09-11T04:32:34.869Z,2.17
2022-09-11T04:35:04.013Z,2.40
2022-09-11T04:37:35.622Z,1.98
2022-09-11T04:40:04.490Z,2.42
2022-09-11T04:42:33.303Z,1.92
2022-09-11T04:45:03.370Z,2.45
2022-09-11T04:47:32.269Z,2.35
2022-09-11T04:50:02.250Z,2.10
2022-09-11T04:52:31.160Z,2.20
2022-09-11T04:55:00.060Z,2.10
2022-09-11T04:57:30.280Z,2.00
2022-09-11T04:59:58.931Z,2.20
2022-09-11T05:02:29.163Z,2.00
2022-09-11T05:04:58.889Z,2.92
2022-09-11T05:07:27.280Z,13.88
2022-09-11T05:09:56.068Z,3.03
2022-09-11T05:12:24.639Z,2.58
2022-09-11T05:14:53.357Z,2.20
2022-09-11T05:17:21.876Z,2.28
2022-09-11T05:19:51.668Z,1.95
2022-09-11T05:22:20.136Z,2.13
2022-09-11T05:24:48.547Z,2.00
2022-09-11T05:27:17.038Z,1.88
2022-09-11T05:29:45.982Z,2.13
2022-09-11T05:32:15.701Z,1.98
2022-09-11T05:34:44.387Z,2.05
2022-09-11T05:37:14.204Z,1.98
2022-09-11T05:39:43.126Z,2.22
2022-09-11T05:42:11.860Z,1.90
2022-09-11T05:44:40.640Z,2.58
2022-09-11T05:47:09.233Z,2.10
2022-09-11T05:49:37.737Z,2.58
2022-09-11T05:52:06.606Z,2.63
2022-09-11T05:54:36.635Z,2.20
2022-09-11T05:57:07.746Z,2.30
2022-09-11T05:59:36.825Z,2.38
2022-09-11T06:02:05.762Z,2.20
2022-09-11T06:04:34.290Z,2.72
2022-09-11T06:07:02.747Z,2.20
2022-09-11T06:09:31.244Z,2.30
2022-09-11T06:12:01.846Z,2.60
2022-09-11T06:14:30.307Z,2.25
2022-09-11T06:16:58.841Z,2.45
2022-09-11T06:19:27.265Z,3.58
2022-09-11T06:21:56.557Z,2.22
2022-09-11T06:24:25.108Z,2.35
2022-09-11T06:26:53.703Z,1.77
2022-09-11T06:29:23.535Z,2.65
2022-09-11T06:31:52.892Z,2.25
2022-09-11T06:34:21.339Z,2.47
2022-09-11T06:36:52.269Z,2.70
2022-09-11T06:39:23.155Z,2.58
2022-09-11T06:41:54.098Z,2.45
2022-09-11T06:44:27.481Z,2.63
2022-09-11T06:46:57.477Z,2.50
2022-09-11T06:49:25.890Z,2.42
2022-09-11T06:51:54.507Z,3.10
2022-09-11T06:54:23.047Z,3.95
2022-09-11T06:56:51.477Z,4.25
2022-09-11T06:59:23.970Z,2.13
2022-09-11T07:01:52.738Z,2.25
2022-09-11T07:04:23.596Z,3.03
2022-09-11T07:06:52.101Z,2.58
2022-09-11T07:09:20.627Z,3.28
2022-09-11T07:11:49.079Z,2.42
2022-09-11T07:14:21.434Z,3.17
2022-09-11T07:16:55.380Z,2.20
2022-09-11T07:19:26.128Z,3.53
2022-09-11T07:21:54.663Z,3.45
2022-09-11T07:24:23.166Z,2.75
2022-09-11T07:26:51.557Z,3.78
2022-09-11T07:29:20.116Z,3.22
2022-09-11T07:31:49.055Z,19.90
2022-09-11T07:34:19.150Z,16.73
2022-09-11T07:36:47.997Z,43.80
2022-09-11T07:39:16.458Z,42.38
2022-09-11T07:41:44.905Z,26.45
2022-09-11T07:44:15.115Z,23.80
2022-09-11T07:46:43.584Z,33.65
2022-09-11T07:49:12.070Z,30.65
2022-09-11T07:51:42.357Z,25.27
2022-09-11T07:54:11.009Z,23.95
2022-09-11T07:56:41.369Z,23.77
2022-09-11T07:59:19.081Z,21.48
2022-09-11T08:01:47.505Z,18.20
2022-09-11T08:04:16.041Z,20.35
2022-09-11T08:06:45.987Z,18.50
2022-09-11T08:09:15.973Z,18.50
2022-09-11T08:11:48.779Z,17.02
2022-09-11T08:14:17.847Z,14.00
2022-09-11T08:16:46.527Z,16.70
2022-09-11T08:19:18.520Z,16.00
2022-09-11T08:21:48.389Z,16.48
2022-09-11T08:24:18.147Z,12.57
2022-09-11T08:26:48.994Z,11.93
2022-09-11T08:29:18.370Z,12.93
2022-09-11T08:31:46.961Z,9.93
2022-09-11T08:34:15.690Z,15.05
2022-09-11T08:36:44.540Z,8.95
2022-09-11T08:39:14.534Z,10.25
2022-09-11T08:41:48.369Z,14.05
2022-09-11T08:44:22.095Z,11.65
2022-09-11T08:46:54.987Z,14.88
2022-09-11T08:49:26.709Z,11.27
2022-09-11T08:51:57.668Z,10.30
2022-09-11T08:54:29.915Z,10.70
2022-09-11T08:57:07.795Z,8.13
2022-09-11T08:59:50.888Z,9.80
2022-09-11T09:02:39.189Z,7.22
2022-09-11T09:05:21.239Z,7.55
2022-09-11T09:08:02.570Z,9.10
2022-09-11T09:10:43.871Z,6.07
2022-09-11T09:13:23.674Z,6.63
2022-09-11T09:15:56.604Z,6.53
2022-09-11T09:18:31.891Z,6.43
2022-09-11T09:21:02.715Z,6.32
2022-09-11T09:23:35.060Z,6.40
2022-09-11T09:26:04.997Z,5.82
2022-09-11T09:28:35.946Z,6.70
2022-09-11T09:31:07.584Z,5.13
2022-09-11T09:33:36.795Z,5.43
2022-09-11T09:36:16.768Z,5.10
2022-09-11T09:38:46.667Z,7.07
2022-09-11T09:41:56.918Z,7.57
2022-09-11T09:44:44.658Z,5.72
2022-09-11T09:47:13.521Z,5.00
2022-09-11T09:49:42.055Z,5.53
2022-09-11T09:52:18.972Z,5.07
2022-09-11T09:54:55.161Z,4.63
2022-09-11T09:57:27.487Z,5.07
2022-09-11T10:00:01.562Z,5.95
2022-09-11T10:02:41.914Z,5.07
2022-09-11T10:05:22.338Z,5.20
2022-09-11T10:07:52.555Z,5.05
2022-09-11T10:10:29.719Z,5.70
2022-09-11T10:13:18.517Z,4.85
2022-09-11T10:15:48.381Z,4.97
2022-09-11T10:18:42.755Z,4.82
2022-09-11T10:21:29.441Z,5.32
2022-09-11T10:23:59.233Z,5.63
2022-09-11T10:26:30.873Z,6.28
2022-09-11T10:29:07.213Z,4.40
2022-09-11T10:31:37.291Z,4.78
2022-09-11T10:34:06.273Z,4.38
2022-09-11T10:36:35.470Z,4.95
2022-09-11T10:39:04.131Z,4.30
2022-09-11T10:41:34.270Z,4.40
2022-09-11T10:44:05.582Z,4.93
2022-09-11T10:46:39.235Z,4.57
2022-09-11T10:49:18.751Z,4.53
2022-09-11T10:52:01.244Z,4.47
2022-09-11T10:54:53.358Z,4.80
2022-09-11T10:57:25.109Z,4.55
2022-09-11T11:00:04.402Z,5.55
2022-09-11T11:02:34.577Z,5.13
2022-09-11T11:05:06.150Z,4.55
2022-09-11T11:08:28.075Z,4.28
2022-09-11T11:11:15.075Z,4.72
2022-09-11T11:14:00.499Z,4.30
2022-09-11T11:16:35.389Z,4.43
2022-09-11T11:19:20.531Z,4.25
2022-09-11T11:22:03.156Z,4.43
2022-09-11T11:24:45.558Z,3.90
2022-09-11T11:27:52.657Z,4.60
2022-09-11T11:30:21.962Z,4.43
2022-09-11T11:33:06.038Z,4.05
2022-09-11T11:35:37.531Z,4.20
2022-09-11T11:38:12.341Z,4.00
2022-09-11T11:40:43.351Z,4.45
2022-09-11T11:43:13.373Z,4.05
2022-09-11T11:45:46.018Z,3.85
2022-09-11T11:48:18.453Z,4.00
2022-09-11T11:50:48.309Z,4.00
2022-09-11T11:53:22.170Z,3.83
2022-09-11T11:55:58.464Z,3.60
2022-09-11T11:58:40.544Z,4.15
2022-09-11T12:01:14.997Z,4.38
2022-09-11T12:03:49.283Z,4.15
2022-09-11T12:06:17.862Z,3.60
2022-09-11T12:08:46.390Z,4.18
2022-09-11T12:11:17.175Z,3.70
2022-09-11T12:13:48.105Z,3.97
2022-09-11T12:16:20.282Z,3.38
2022-09-11T12:19:15.477Z,3.67
2022-09-11T12:22:07.091Z,3.80
2022-09-11T12:24:59.090Z,4.15
2022-09-11T12:27:54.095Z,4.38
2022-09-11T12:30:28.165Z,3.40
2022-09-11T12:32:57.212Z,4.05
2022-09-11T12:35:34.915Z,3.30
2022-09-11T12:38:13.293Z,4.32
2022-09-11T12:40:50.945Z,3.30
2022-09-11T12:43:32.445Z,4.43
2022-09-11T12:46:02.194Z,3.00
2022-09-11T12:48:38.810Z,2.90
2022-09-11T12:51:19.403Z,3.50
2022-09-11T12:53:50.447Z,3.25
2022-09-11T12:56:21.705Z,2.90
2022-09-11T12:58:54.684Z,3.22
2022-09-11T13:01:24.448Z,3.03
2022-09-11T13:04:02.203Z,3.35
2022-09-11T13:06:41.766Z,2.75
2022-09-11T13:09:20.100Z,3.10
2022-09-11T13:11:49.872Z,3.22
2022-09-11T13:14:48.169Z,3.20
2022-09-11T13:17:27.001Z,3.05
2022-09-11T13:19:58.872Z,3.33
2022-09-11T13:22:31.292Z,3.22
2022-09-11T13:25:07.851Z,3.00
2022-09-11T13:27:37.606Z,3.20
2022-09-11T13:30:07.555Z,3.90
2022-09-11T13:32:36.064Z,3.42
2022-09-11T13:35:08.233Z,3.17
2022-09-11T13:37:40.090Z,3.63
2022-09-11T13:40:15.501Z,3.20
2022-09-11T13:42:43.887Z,3.08
2022-09-11T13:45:15.713Z,3.45
2022-09-11T13:47:44.137Z,4.20
2022-09-11T13:50:14.369Z,3.30
2022-09-11T13:52:45.700Z,3.20
2022-09-11T13:55:19.263Z,3.00
2022-09-11T13:57:55.692Z,3.20
2022-09-11T14:00:42.125Z,3.17
2022-09-11T14:03:20.270Z,3.08
2022-09-11T14:05:54.059Z,2.95
2022-09-11T14:08:35.124Z,5.50
2022-09-11T14:11:08.195Z,3.17
2022-09-11T14:13:43.647Z,3.00
2022-09-11T14:16:22.668Z,4.80
2022-09-11T14:18:52.903Z,3.83
2022-09-11T14:21:23.347Z,3.10
2022-09-11T14:23:54.460Z,3.35
2022-09-11T14:26:24.213Z,5.22
2022-09-11T14:29:03.687Z,3.10
2022-09-11T14:31:35.686Z,4.20
2022-09-11T14:34:16.336Z,3.50
2022-09-11T14:36:47.736Z,3.67
2022-09-11T14:39:34.340Z,3.00
2022-09-11T14:42:02.937Z,3.25
2022-09-11T14:44:32.847Z,5.35
2022-09-11T14:47:01.324Z,3.53
2022-09-11T14:49:30.439Z,3.38
2022-09-11T14:52:00.179Z,3.20
2022-09-11T14:54:31.816Z,3.20
2022-09-11T14:57:00.707Z,5.43
2022-09-11T14:59:30.099Z,3.45
2022-09-11T15:02:03.709Z,2.92
2022-09-11T15:04:32.235Z,3.10
2022-09-11T15:07:00.950Z,3.13
2022-09-11T15:09:30.661Z,3.30
2022-09-11T15:11:59.206Z,3.40
2022-09-11T15:14:52.410Z,3.13
2022-09-11T15:17:17.930Z,3.30
2022-09-11T15:19:49.517Z,3.28
2022-09-11T15:22:18.058Z,3.45
2022-09-11T15:24:49.909Z,3.30
2022-09-11T15:27:19.211Z,2.97
2022-09-11T15:29:47.653Z,3.60
2022-09-11T15:32:16.455Z,3.25
2022-09-11T15:34:45.361Z,3.03
2022-09-11T15:37:13.849Z,3.28
2022-09-11T15:39:42.299Z,3.10
2022-09-11T15:42:12.616Z,3.63
2022-09-11T15:44:41.151Z,3.25
2022-09-11T15:47:11.619Z,3.60
2022-09-11T15:49:41.177Z,3.67
2022-09-11T15:52:09.927Z,3.72
2022-09-11T15:54:38.528Z,3.75
2022-09-11T15:57:07.395Z,5.45
2022-09-11T15:59:37.228Z,4.30
2022-09-11T16:02:05.968Z,4.28
2022-09-11T16:04:34.908Z,3.88
2022-09-11T16:07:03.717Z,3.78
2022-09-11T16:09:32.846Z,3.97
2022-09-11T16:12:01.852Z,29.33
2022-09-11T16:14:32.893Z,25.08
2022-09-11T16:17:03.545Z,22.83
2022-09-11T16:19:32.126Z,18.98
2022-09-11T16:22:01.816Z,28.38
2022-09-11T16:24:32.047Z,22.63
2022-09-11T16:27:01.793Z,26.42
2022-09-11T16:29:51.232Z,22.50
2022-09-11T16:32:28.642Z,22.77
2022-09-11T16:34:59.560Z,23.02
2022-09-11T16:37:28.551Z,18.50
2022-09-11T16:39:57.152Z,21.38
2022-09-11T16:42:26.683Z,19.98
2022-09-11T16:44:55.693Z,19.10
2022-09-11T16:47:25.865Z,18.83
2022-09-11T16:50:10.018Z,16.90
2022-09-11T16:52:39.233Z,17.38
2022-09-11T16:55:09.813Z,16.90
2022-09-11T16:57:38.469Z,16.58
2022-09-11T17:00:09.203Z,14.18
2022-09-11T17:02:39.218Z,17.88
2022-09-11T17:05:08.500Z,17.92
2022-09-11T17:07:37.162Z,15.38
2022-09-11T17:10:06.559Z,12.65
2022-09-11T17:12:35.184Z,16.10
2022-09-11T17:15:05.614Z,11.40
2022-09-11T17:17:34.261Z,13.93
2022-09-11T17:20:04.350Z,12.73
2022-09-11T17:22:33.067Z,12.45
2022-09-11T17:25:03.203Z,14.25
2022-09-11T17:27:31.730Z,14.13
2022-09-11T17:30:00.787Z,11.82
2022-09-11T17:32:30.104Z,9.30
2022-09-11T17:34:59.470Z,10.23
2022-09-11T17:37:29.390Z,9.00
2022-09-11T17:39:58.752Z,9.18
2022-09-11T17:42:28.820Z,11.77
2022-09-11T17:44:57.607Z,10.30
2022-09-11T17:47:26.299Z,10.25
2022-09-11T17:49:54.939Z,9.77
2022-09-11T17:52:24.459Z,8.73
2022-09-11T17:54:54.456Z,12.48
2022-09-11T17:57:23.602Z,9.50
2022-09-11T17:59:52.182Z,7.78
2022-09-11T18:02:21.883Z,8.35
2022-09-11T18:04:50.537Z,9.85
2022-09-11T18:07:19.314Z,8.63
2022-09-11T18:09:48.203Z,7.65
2022-09-11T18:12:18.083Z,7.50
2022-09-11T18:14:46.735Z,10.68
2022-09-11T18:17:15.307Z,7.95
2022-09-11T18:19:44.394Z,9.85
2022-09-11T18:22:12.898Z,7.50
2022-09-11T18:24:41.558Z,8.15
2022-09-11T18:27:11.702Z,5.93
2022-09-11T18:29:41.900Z,6.53
2022-09-11T18:32:10.620Z,7.28
2022-09-11T18:34:39.477Z,7.57
2022-09-11T18:37:08.425Z,5.65
2022-09-11T18:39:38.583Z,4.82
2022-09-11T18:42:07.577Z,7.65
2022-09-11T18:44:36.297Z,6.47
2022-09-11T18:47:06.558Z,5.10
2022-09-11T18:49:35.182Z,5.70
2022-09-11T18:52:04.220Z,6.28
2022-09-11T18:54:34.203Z,5.40
2022-09-11T18:57:04.065Z,5.25
2022-09-11T18:59:32.635Z,7.63
2022-09-11T19:02:01.345Z,4.93
2022-09-11T19:04:31.995Z,5.50
2022-09-11T19:07:00.772Z,5.53
2022-09-11T19:09:29.558Z,5.95
2022-09-11T19:12:00.283Z,4.20
2022-09-11T19:14:29.004Z,6.05
2022-09-11T19:16:57.942Z,5.32
2022-09-11T19:19:26.444Z,5.28
2022-09-11T19:21:56.508Z,5.05
2022-09-11T19:24:28.269Z,4.82
2022-09-11T19:26:57.222Z,6.28
2022-09-11T19:29:25.712Z,22.27
2022-09-11T19:31:54.886Z,27.23
2022-09-11T19:34:24.552Z,29.55
2022-09-11T19:36:53.291Z,59.28
2022-09-11T19:39:23.293Z,90.78
2022-09-11T19:41:51.995Z,143.20
2022-09-11T19:44:21.160Z,143.85
2022-09-11T19:46:53.530Z,115.40
2022-09-11T19:49:22.174Z,149.65
2022-09-11T19:51:52.944Z,128.82
2022-09-11T19:54:23.282Z,121.55
2022-09-11T19:56:51.805Z,134.00
2022-09-11T19:59:20.298Z,110.50
2022-09-11T20:01:48.950Z,129.20
2022-09-11T20:04:19.224Z,113.50
2022-09-11T20:09:32.173Z,102.43
2022-09-11T20:12:02.736Z,83.40
2022-09-11T20:14:31.565Z,82.55
2022-09-11T20:19:30.224Z,78.43
2022-09-11T20:22:00.469Z,65.88
2022-09-11T20:24:30.635Z,70.70
2022-09-11T20:27:00.455Z,59.63
2022-09-11T20:29:30.944Z,55.70
2022-09-11T20:32:00.522Z,50.53
2022-09-11T20:34:29.242Z,48.78
2022-09-11T20:37:00.839Z,45.78
2022-09-11T20:39:29.532Z,43.72
2022-09-11T20:41:57.979Z,42.83
2022-09-11T20:44:27.136Z,39.13
2022-09-11T20:46:57.028Z,33.85
2022-09-11T20:49:25.684Z,30.63
2022-09-11T20:51:54.070Z,32.20
2022-09-11T20:54:22.951Z,30.92
2022-09-11T20:56:51.388Z,30.90
2022-09-11T20:59:19.788Z,26.63
2022-09-11T21:01:49.330Z,27.95
2022-09-11T21:04:19.103Z,23.55
2022-09-11T21:06:47.644Z,33.50
2022-09-11T21:09:16.043Z,26.13
2022-09-11T21:11:44.714Z,19.20
2022-09-11T21:14:13.436Z,24.08
2022-09-11T21:16:41.874Z,20.92
2022-09-11T21:19:11.037Z,16.58
2022-09-11T21:21:40.814Z,20.13
2022-09-11T21:24:12.625Z,20.80
2022-09-11T21:26:41.223Z,17.90
2022-09-11T21:29:10.214Z,17.88
2022-09-11T21:31:38.807Z,18.15
2022-09-11T21:34:07.385Z,17.08
2022-09-11T21:36:37.164Z,18.00
2022-09-11T21:39:07.014Z,14.57
2022-09-11T21:41:35.487Z,19.40
2022-09-11T21:44:04.274Z,18.65
2022-09-11T21:46:32.811Z,11.88
2022-09-11T21:49:01.802Z,13.23
2022-09-11T21:51:30.409Z,15.02
2022-09-11T21:54:01.789Z,14.20
2022-09-11T21:56:33.435Z,12.23
2022-09-11T21:59:01.945Z,13.73
2022-09-11T22:01:31.920Z,13.60
2022-09-11T22:04:01.226Z,11.95
2022-09-11T22:06:30.232Z,12.02
2022-09-11T22:08:58.667Z,10.45
2022-09-11T22:11:27.088Z,13.20
2022-09-11T22:13:56.891Z,94.20
2022-09-11T22:16:25.364Z,88.50
2022-09-11T22:18:54.885Z,41.25
2022-09-11T22:21:23.572Z,47.95
2022-09-11T22:23:52.503Z,80.22
2022-09-11T22:26:23.652Z,51.22
2022-09-11T22:28:52.442Z,41.03
2022-09-11T22:31:24.143Z,41.67
2022-09-11T22:33:52.810Z,41.35
2022-09-11T22:36:23.218Z,28.70
2022-09-11T22:38:51.623Z,31.35
2022-09-11T22:41:20.484Z,25.08
2022-09-11T22:43:50.044Z,24.20
2022-09-11T22:46:19.762Z,24.08
2022-09-11T22:48:49.736Z,21.30
2022-09-11T22:51:18.214Z,20.95
2022-09-11T22:53:46.941Z,20.75
2022-09-11T22:56:15.463Z,21.10
2022-09-11T22:58:44.118Z,16.85
2022-09-11T23:01:14.258Z,19.23
2022-09-11T23:03:42.776Z,14.75
2022-09-11T23:06:30.314Z,13.00
2022-09-11T23:09:00.608Z,12.68
2022-09-11T23:11:29.745Z,13.50
2022-09-11T23:13:58.586Z,14.63
2022-09-11T23:16:28.698Z,15.27
2022-09-11T23:18:57.723Z,15.27
2022-09-11T23:21:27.948Z,14.38
2022-09-11T23:23:57.416Z,11.23
2022-09-11T23:26:26.983Z,12.45
2022-09-11T23:28:55.677Z,12.00
2022-09-11T23:31:26.003Z,9.52
2022-09-11T23:33:55.502Z,11.88
2022-09-11T23:36:24.174Z,11.27
2022-09-11T23:38:53.974Z,8.77
2022-09-11T23:41:22.816Z,10.23
2022-09-11T23:43:51.425Z,8.07
2022-09-11T23:46:20.026Z,9.43
2022-09-11T23:48:48.549Z,7.78
2022-09-11T23:51:17.295Z,9.13
2022-09-11T23:53:47.793Z,10.18
2022-09-11T23:56:17.665Z,8.45
2022-09-11T23:58:46.826Z,8.07
